createdAt,value
2018-12-01T00:00:23.221Z,48.83
2018-12-01T00:02:51.929Z,55.93
2018-12-01T00:05:20.386Z,52.40
2018-12-01T00:07:49.478Z,64.30
2018-12-01T00:10:17.958Z,53.67
2018-12-01T00:12:46.458Z,52.90
2018-12-01T00:15:16.463Z,63.58
2018-12-01T00:17:44.911Z,55.47
2018-12-01T00:20:14.834Z,69.77
2018-12-01T00:22:43.307Z,43.40
2018-12-01T00:25:11.794Z,62.27
2018-12-01T00:27:40.246Z,51.43
2018-12-01T00:30:13.913Z,53.60
2018-12-01T00:32:42.969Z,37.43
2018-12-01T00:35:12.440Z,40.43
2018-12-01T00:37:40.889Z,34.63
2018-12-01T00:40:18.193Z,29.03
2018-12-01T00:42:46.682Z,35.37
2018-12-01T00:45:16.966Z,34.37
2018-12-01T00:47:46.759Z,28.90
2018-12-01T00:50:16.387Z,29.40
2018-12-01T00:52:45.147Z,38.50
2018-12-01T00:55:14.586Z,44.47
2018-12-01T00:57:43.053Z,45.87
2018-12-01T01:00:22.654Z,55.30
2018-12-01T01:02:52.882Z,59.97
2018-12-01T01:05:22.353Z,63.00
2018-12-01T01:07:50.857Z,60.70
2018-12-01T01:10:20.125Z,50.43
2018-12-01T01:12:48.574Z,42.80
2018-12-01T01:15:17.024Z,44.87
2018-12-01T01:17:45.485Z,39.57
2018-12-01T01:20:15.097Z,39.23
2018-12-01T01:22:43.726Z,43.80
2018-12-01T01:25:12.900Z,38.57
2018-12-01T01:27:41.395Z,35.27
2018-12-01T01:30:13.941Z,42.60
2018-12-01T01:32:42.386Z,54.50
2018-12-01T01:35:10.847Z,31.50
2018-12-01T01:37:39.278Z,32.80
2018-12-01T01:40:10.451Z,30.83
2018-12-01T01:42:38.977Z,33.83
2018-12-01T01:45:09.870Z,30.37
2018-12-01T01:47:38.343Z,31.57
2018-12-01T01:50:09.042Z,33.90
2018-12-01T01:52:37.503Z,47.60
2018-12-01T01:55:07.626Z,41.13
2018-12-01T01:57:36.125Z,35.93
2018-12-01T02:00:16.770Z,50.70
2018-12-01T02:02:49.172Z,57.67
2018-12-01T02:05:18.690Z,56.00
2018-12-01T02:07:47.145Z,60.07
2018-12-01T02:10:16.531Z,63.47
2018-12-01T02:12:44.996Z,42.60
2018-12-01T02:15:14.054Z,38.73
2018-12-01T02:17:42.570Z,47.27
2018-12-01T02:20:16.052Z,36.83
2018-12-01T02:22:44.566Z,39.27
2018-12-01T02:25:13.976Z,37.93
2018-12-01T02:27:42.562Z,41.10
2018-12-01T02:30:19.925Z,40.17
2018-12-01T02:32:48.883Z,56.88
2018-12-01T02:35:25.560Z,46.93
2018-12-01T02:37:55.022Z,45.13
2018-12-01T02:40:22.486Z,65.67
2018-12-01T02:42:51.252Z,42.03
2018-12-01T02:45:31.083Z,66.50
2018-12-01T02:47:59.536Z,74.47
2018-12-01T02:50:29.482Z,45.73
2018-12-01T02:53:00.790Z,45.37
2018-12-01T02:55:29.420Z,45.23
2018-12-01T02:57:57.913Z,49.60
2018-12-01T03:00:26.369Z,67.53
2018-12-01T03:02:54.855Z,47.80
2018-12-01T03:05:24.070Z,45.30
2018-12-01T03:07:53.233Z,58.93
2018-12-01T03:10:22.478Z,49.07
2018-12-01T03:12:51.809Z,58.87
2018-12-01T03:15:20.538Z,56.47
2018-12-01T03:17:49.793Z,55.47
2018-12-01T03:20:18.885Z,40.37
2018-12-01T03:22:47.364Z,45.40
2018-12-01T03:25:17.990Z,65.03
2018-12-01T03:27:47.014Z,64.10
2018-12-01T03:30:18.721Z,67.23
2018-12-01T03:32:47.830Z,103.33
2018-12-01T03:35:16.282Z,80.47
2018-12-01T03:37:46.335Z,59.27
2018-12-01T03:40:15.162Z,66.93
2018-12-01T03:42:43.602Z,43.30
2018-12-01T03:45:15.905Z,68.77
2018-12-01T03:47:44.412Z,92.77
2018-12-01T03:50:18.813Z,72.00
2018-12-01T03:52:47.259Z,67.73
2018-12-01T03:55:25.876Z,82.90
2018-12-01T03:57:54.317Z,70.37
2018-12-01T04:00:28.184Z,40.20
2018-12-01T04:02:57.423Z,82.33
2018-12-01T04:05:25.909Z,47.03
2018-12-01T04:07:54.449Z,61.80
2018-12-01T04:10:22.894Z,51.83
2018-12-01T04:12:51.390Z,54.65
2018-12-01T04:15:19.849Z,43.73
2018-12-01T04:17:48.392Z,51.23
2018-12-01T04:20:16.862Z,53.30
2018-12-01T04:22:45.343Z,58.67
2018-12-01T04:25:13.792Z,43.97
2018-12-01T04:27:42.224Z,51.95
2018-12-01T04:30:15.117Z,38.57
2018-12-01T04:32:43.561Z,58.83
2018-12-01T04:35:15.960Z,71.50
2018-12-01T04:37:45.075Z,70.73
2018-12-01T04:40:13.526Z,60.53
2018-12-01T04:42:42.089Z,50.80
2018-12-01T04:45:10.565Z,67.50
2018-12-01T04:47:39.074Z,67.23
2018-12-01T04:50:09.286Z,70.77
2018-12-01T04:52:37.746Z,55.13
2018-12-01T04:55:08.976Z,59.63
2018-12-01T04:57:37.517Z,53.90
2018-12-01T05:00:11.973Z,53.40
2018-12-01T05:02:40.378Z,43.43
2018-12-01T05:05:10.354Z,36.57
2018-12-01T05:07:38.786Z,47.77
2018-12-01T05:10:10.369Z,44.07
2018-12-01T05:12:38.778Z,60.63
2018-12-01T05:15:16.906Z,73.23
2018-12-01T05:17:45.541Z,64.07
2018-12-01T05:20:15.187Z,48.17
2018-12-01T05:22:43.592Z,54.43
2018-12-01T05:25:12.043Z,52.20
2018-12-01T05:27:40.523Z,41.90
2018-12-01T05:30:09.177Z,42.37
2018-12-01T05:32:38.373Z,37.37
2018-12-01T05:35:17.738Z,55.60
2018-12-01T05:37:46.191Z,52.27
2018-12-01T05:40:14.656Z,45.90
2018-12-01T05:42:43.099Z,63.33
2018-12-01T05:45:17.578Z,47.10
2018-12-01T05:47:46.102Z,40.50
2018-12-01T05:50:15.746Z,50.03
2018-12-01T05:52:44.181Z,53.23
2018-12-01T05:55:13.032Z,63.83
2018-12-01T05:57:41.466Z,57.63
2018-12-01T06:00:14.109Z,49.43
2018-12-01T06:02:42.577Z,47.17
2018-12-01T06:05:11.545Z,50.33
2018-12-01T06:07:40.590Z,57.23
2018-12-01T06:10:18.458Z,48.57
2018-12-01T06:12:47.501Z,55.63
2018-12-01T06:15:16.662Z,63.30
2018-12-01T06:17:45.116Z,69.27
2018-12-01T06:20:14.757Z,74.27
2018-12-01T06:22:43.205Z,54.27
2018-12-01T06:25:15.724Z,51.53
2018-12-01T06:27:44.219Z,41.53
2018-12-01T06:30:15.463Z,34.27
2018-12-01T06:32:44.246Z,63.53
2018-12-01T06:35:12.743Z,48.70
2018-12-01T06:37:41.254Z,32.87
2018-12-01T06:40:15.718Z,43.23
2018-12-01T06:42:44.171Z,56.73
2018-12-01T06:45:13.506Z,49.37
2018-12-01T06:47:42.030Z,49.53
2018-12-01T06:50:13.541Z,42.20
2018-12-01T06:52:41.977Z,52.30
2018-12-01T06:55:11.527Z,58.20
2018-12-01T06:57:40.065Z,55.20
2018-12-01T07:00:10.630Z,64.03
2018-12-01T07:02:39.055Z,45.77
2018-12-01T07:05:08.862Z,61.63
2018-12-01T07:07:37.283Z,71.67
2018-12-01T07:10:10.072Z,60.20
2018-12-01T07:12:38.631Z,61.80
2018-12-01T07:15:10.375Z,56.97
2018-12-01T07:17:38.801Z,57.00
2018-12-01T07:20:08.377Z,62.17
2018-12-01T07:22:36.795Z,51.40
2018-12-01T07:25:05.855Z,41.40
2018-12-01T07:27:34.283Z,57.23
2018-12-01T07:30:02.802Z,68.27
2018-12-01T07:32:31.218Z,49.03
2018-12-01T07:34:59.653Z,43.07
2018-12-01T07:37:28.063Z,46.07
2018-12-01T07:39:56.496Z,71.77
2018-12-01T07:42:24.914Z,35.77
2018-12-01T07:44:53.361Z,54.63
2018-12-01T07:47:21.798Z,45.37
2018-12-01T07:49:50.222Z,48.07
2018-12-01T07:52:18.650Z,35.43
2018-12-01T07:54:47.089Z,50.80
2018-12-01T07:57:15.498Z,52.00
2018-12-01T07:59:43.922Z,66.33
2018-12-01T08:02:12.347Z,79.00
2018-12-01T08:04:40.783Z,50.70
2018-12-01T08:07:09.283Z,55.67
2018-12-01T08:09:37.706Z,51.73
2018-12-01T08:12:06.194Z,46.17
2018-12-01T08:14:34.635Z,46.70
2018-12-01T08:17:03.070Z,51.23
2018-12-01T08:19:31.485Z,54.43
2018-12-01T08:21:59.934Z,48.00
2018-12-01T08:24:28.347Z,43.13
2018-12-01T08:26:56.786Z,40.70
2018-12-01T08:29:25.190Z,43.47
2018-12-01T08:31:53.643Z,68.17
2018-12-01T08:34:22.058Z,70.23
2018-12-01T08:36:50.501Z,58.57
2018-12-01T08:39:18.906Z,56.60
2018-12-01T08:41:47.363Z,58.27
2018-12-01T08:44:15.786Z,50.70
2018-12-01T08:46:44.238Z,59.57
2018-12-01T08:49:12.639Z,44.00
2018-12-01T08:51:41.071Z,47.40
2018-12-01T08:54:09.481Z,55.50
2018-12-01T08:56:38.028Z,55.10
2018-12-01T08:59:06.730Z,55.17
2018-12-01T09:01:35.223Z,60.03
2018-12-01T09:04:03.698Z,52.10
2018-12-01T09:06:32.158Z,52.73
2018-12-01T09:09:00.559Z,49.60
2018-12-01T09:11:28.990Z,48.70
2018-12-01T09:13:57.397Z,47.20
2018-12-01T09:16:25.819Z,56.07
2018-12-01T09:18:54.215Z,48.67
2018-12-01T09:21:22.637Z,58.13
2018-12-01T09:23:51.050Z,49.57
2018-12-01T09:26:19.474Z,43.27
2018-12-01T09:28:47.886Z,43.77
2018-12-01T09:31:16.306Z,40.57
2018-12-01T09:33:44.713Z,70.50
2018-12-01T09:36:13.133Z,47.07
2018-12-01T09:38:41.691Z,38.07
2018-12-01T09:41:10.118Z,43.77
2018-12-01T09:43:38.522Z,34.90
2018-12-01T09:46:06.983Z,35.00
2018-12-01T09:48:35.413Z,32.20
2018-12-01T09:51:03.855Z,44.10
2018-12-01T09:53:32.258Z,41.80
2018-12-01T09:56:00.712Z,35.17
2018-12-01T09:58:29.147Z,60.77
2018-12-01T10:00:57.587Z,48.07
2018-12-01T10:03:26.015Z,54.77
2018-12-01T10:05:54.418Z,63.57
2018-12-01T10:08:22.843Z,84.23
2018-12-01T10:10:51.250Z,73.43
2018-12-01T10:13:19.671Z,82.90
2018-12-01T10:15:48.099Z,81.13
2018-12-01T10:18:16.526Z,70.20
2018-12-01T10:20:44.959Z,74.37
2018-12-01T10:23:13.382Z,81.30
2018-12-01T10:25:41.777Z,66.20
2018-12-01T10:28:10.857Z,60.03
2018-12-01T10:30:39.294Z,63.73
2018-12-01T10:33:07.778Z,57.70
2018-12-01T10:35:36.976Z,59.93
2018-12-01T10:38:12.238Z,58.73
2018-12-01T10:40:40.662Z,67.77
2018-12-01T10:43:09.147Z,77.60
2018-12-01T10:45:37.685Z,58.07
2018-12-01T10:48:07.706Z,66.10
2018-12-01T10:50:36.154Z,46.20
2018-12-01T10:53:04.710Z,63.43
2018-12-01T10:55:33.960Z,52.43
2018-12-01T10:58:17.482Z,53.90
2018-12-01T11:00:54.309Z,50.90
2018-12-01T11:03:34.074Z,55.03
2018-12-01T11:06:05.170Z,48.97
2018-12-01T11:08:33.610Z,53.30
2018-12-01T11:11:02.034Z,52.30
2018-12-01T11:13:30.542Z,52.70
2018-12-01T11:15:58.991Z,56.17
2018-12-01T11:18:27.479Z,46.10
2018-12-01T11:20:55.913Z,55.10
2018-12-01T11:23:24.434Z,59.27
2018-12-01T11:25:53.054Z,56.93
2018-12-01T11:28:21.546Z,55.07
2018-12-01T11:30:50.063Z,55.13
2018-12-01T11:33:18.543Z,69.77
2018-12-01T11:35:47.034Z,96.17
2018-12-01T11:38:15.518Z,58.53
2018-12-01T11:40:43.973Z,58.07
2018-12-01T11:43:12.458Z,59.00
2018-12-01T11:45:40.943Z,44.87
2018-12-01T11:48:09.842Z,45.37
2018-12-01T11:50:39.490Z,45.97
2018-12-01T11:53:07.975Z,41.13
2018-12-01T11:55:36.491Z,47.43
2018-12-01T11:58:05.150Z,40.40
2018-12-01T12:00:33.628Z,43.40
2018-12-01T12:03:02.072Z,43.47
2018-12-01T12:05:30.534Z,33.33
2018-12-01T12:08:16.950Z,41.17
2018-12-01T12:10:45.416Z,37.50
2018-12-01T12:13:13.885Z,39.17
2018-12-01T12:15:42.358Z,32.00
2018-12-01T12:18:10.893Z,42.47
2018-12-01T12:20:39.467Z,29.87
2018-12-01T12:23:08.330Z,26.37
2018-12-01T12:25:36.804Z,29.33
2018-12-01T12:28:05.462Z,26.27
2018-12-01T12:30:33.926Z,26.90
2018-12-01T12:33:02.377Z,25.03
2018-12-01T12:35:30.839Z,32.23
2018-12-01T12:37:59.254Z,29.60
2018-12-01T12:40:27.889Z,26.00
2018-12-01T12:42:58.410Z,20.13
2018-12-01T12:45:26.911Z,18.50
2018-12-01T12:47:55.338Z,23.97
2018-12-01T12:50:23.787Z,24.17
2018-12-01T12:52:54.238Z,22.27
2018-12-01T12:55:25.638Z,20.43
2018-12-01T12:57:54.103Z,20.73
2018-12-01T13:00:23.558Z,27.23
2018-12-01T13:03:02.434Z,19.10
2018-12-01T13:05:40.074Z,21.73
2018-12-01T13:08:09.103Z,19.73
2018-12-01T13:10:37.574Z,18.43
2018-12-01T13:13:06.778Z,15.90
2018-12-01T13:15:36.722Z,14.53
2018-12-01T13:18:07.057Z,23.03
2018-12-01T13:20:35.542Z,19.60
2018-12-01T13:23:04.018Z,29.03
2018-12-01T13:25:32.471Z,24.00
2018-12-01T13:28:07.962Z,15.20
2018-12-01T13:30:40.098Z,16.70
2018-12-01T13:33:08.530Z,18.50
2018-12-01T13:35:36.983Z,15.33
2018-12-01T13:38:06.150Z,16.27
2018-12-01T13:40:34.678Z,17.40
2018-12-01T13:43:03.146Z,17.13
2018-12-01T13:45:31.626Z,15.63
2018-12-01T13:48:00.999Z,15.53
2018-12-01T13:50:29.514Z,14.07
2018-12-01T13:52:59.642Z,15.40
2018-12-01T13:55:28.459Z,17.47
2018-12-01T13:57:57.043Z,20.50
2018-12-01T14:00:26.491Z,20.40
2018-12-01T14:02:55.010Z,16.97
2018-12-01T14:05:23.479Z,20.27
2018-12-01T14:07:51.978Z,19.20
2018-12-01T14:10:21.538Z,21.70
2018-12-01T14:12:51.370Z,15.70
2018-12-01T14:15:21.063Z,12.17
2018-12-01T14:17:49.611Z,16.40
2018-12-01T14:20:18.438Z,16.83
2018-12-01T14:22:47.659Z,13.23
2018-12-01T14:25:16.999Z,17.00
2018-12-01T14:27:46.982Z,14.17
2018-12-01T14:30:16.246Z,19.93
2018-12-01T14:32:45.046Z,12.50
2018-12-01T14:35:20.595Z,16.60
2018-12-01T14:37:50.610Z,21.40
2018-12-01T14:40:19.058Z,13.40
2018-12-01T14:42:47.535Z,16.90
2018-12-01T14:45:17.071Z,12.57
2018-12-01T14:47:45.605Z,14.30
2018-12-01T14:50:14.943Z,16.97
2018-12-01T14:52:43.966Z,19.50
2018-12-01T14:55:13.459Z,16.77
2018-12-01T14:57:41.937Z,11.43
2018-12-01T15:00:12.923Z,17.07
2018-12-01T15:02:41.338Z,13.00
2018-12-01T15:05:09.867Z,10.87
2018-12-01T15:07:38.302Z,11.63
2018-12-01T15:10:12.982Z,15.47
2018-12-01T15:12:41.495Z,12.90
2018-12-01T15:15:11.054Z,8.90
2018-12-01T15:17:39.534Z,12.73
2018-12-01T15:20:16.507Z,14.07
2018-12-01T15:22:46.026Z,9.13
2018-12-01T15:25:18.478Z,9.00
2018-12-01T15:27:46.938Z,10.83
2018-12-01T15:30:18.406Z,7.40
2018-12-01T15:32:50.607Z,13.20
2018-12-01T15:35:19.018Z,8.63
2018-12-01T15:37:47.446Z,9.00
2018-12-01T15:40:17.886Z,7.50
2018-12-01T15:42:46.435Z,6.63
2018-12-01T15:45:16.882Z,7.13
2018-12-01T15:47:45.379Z,11.20
2018-12-01T15:50:15.650Z,10.27
2018-12-01T15:52:46.329Z,7.60
2018-12-01T15:55:14.746Z,6.87
2018-12-01T15:57:43.219Z,29.50
2018-12-01T16:00:14.085Z,47.67
2018-12-01T16:02:42.514Z,20.83
2018-12-01T16:05:11.829Z,17.07
2018-12-01T16:07:40.277Z,18.07
2018-12-01T16:10:13.924Z,13.80
2018-12-01T16:12:42.778Z,8.97
2018-12-01T16:15:13.793Z,8.33
2018-12-01T16:17:42.194Z,7.73
2018-12-01T16:20:12.146Z,12.70
2018-12-01T16:22:40.580Z,11.73
2018-12-01T16:25:10.784Z,10.70
2018-12-01T16:27:39.258Z,6.10
2018-12-01T16:30:12.331Z,10.27
2018-12-01T16:32:40.782Z,6.93
2018-12-01T16:35:09.202Z,8.00
2018-12-01T16:37:37.630Z,14.17
2018-12-01T16:40:10.969Z,18.17
2018-12-01T16:42:39.414Z,9.40
2018-12-01T16:45:10.097Z,9.10
2018-12-01T16:47:38.871Z,11.37
2018-12-01T16:50:10.307Z,7.50
2018-12-01T16:52:38.782Z,11.20
2018-12-01T16:55:09.435Z,5.93
2018-12-01T16:57:37.866Z,5.90
2018-12-01T17:00:11.033Z,6.07
2018-12-01T17:02:39.474Z,10.50
2018-12-01T17:05:09.397Z,6.43
2018-12-01T17:07:37.858Z,6.73
2018-12-01T17:10:12.227Z,5.17
2018-12-01T17:12:40.971Z,3.60
2018-12-01T17:15:12.156Z,3.47
2018-12-01T17:17:40.576Z,4.10
2018-12-01T17:20:11.270Z,2.97
2018-12-01T17:22:39.870Z,3.30
2018-12-01T17:25:13.461Z,3.50
2018-12-01T17:27:41.925Z,3.60
2018-12-01T17:30:12.946Z,3.53
2018-12-01T17:32:41.419Z,3.27
2018-12-01T17:35:14.222Z,3.60
2018-12-01T17:37:42.922Z,2.93
2018-12-01T17:40:15.770Z,3.67
2018-12-01T17:42:46.434Z,5.00
2018-12-01T17:45:14.871Z,4.43
2018-12-01T17:47:43.347Z,4.67
2018-12-01T17:50:15.689Z,4.17
2018-12-01T17:52:51.554Z,5.30
2018-12-01T17:55:20.052Z,3.33
2018-12-01T17:57:49.134Z,5.20
2018-12-01T18:00:18.968Z,4.50
2018-12-01T18:02:47.871Z,5.17
2018-12-01T18:05:18.114Z,8.50
2018-12-01T18:07:46.562Z,7.43
2018-12-01T18:10:15.089Z,5.33
2018-12-01T18:12:44.154Z,6.30
2018-12-01T18:15:15.025Z,6.57
2018-12-01T18:17:43.561Z,4.57
2018-12-01T18:20:16.851Z,10.43
2018-12-01T18:22:46.712Z,6.63
2018-12-01T18:25:15.214Z,6.63
2018-12-01T18:27:43.762Z,6.50
2018-12-01T18:30:14.934Z,8.10
2018-12-01T18:32:43.466Z,5.90
2018-12-01T18:35:11.859Z,6.00
2018-12-01T18:37:40.274Z,7.97
2018-12-01T18:40:17.194Z,7.03
2018-12-01T18:42:45.638Z,6.70
2018-12-01T18:45:15.350Z,7.50
2018-12-01T18:47:43.912Z,6.70
2018-12-01T18:50:16.313Z,10.20
2018-12-01T18:52:48.049Z,11.73
2018-12-01T18:55:16.523Z,11.90
2018-12-01T18:57:44.962Z,13.60
2018-12-01T19:00:16.817Z,11.03
2018-12-01T19:02:45.646Z,8.10
2018-12-01T19:05:14.083Z,6.73
2018-12-01T19:07:42.532Z,8.03
2018-12-01T19:10:12.570Z,7.17
2018-12-01T19:12:41.070Z,8.07
2018-12-01T19:15:10.931Z,9.60
2018-12-01T19:17:39.387Z,6.00
2018-12-01T19:20:11.928Z,6.30
2018-12-01T19:22:40.433Z,10.37
2018-12-01T19:25:10.390Z,8.37
2018-12-01T19:27:38.834Z,6.77
2018-12-01T19:30:10.478Z,6.67
2018-12-01T19:32:38.978Z,4.03
2018-12-01T19:35:10.159Z,6.00
2018-12-01T19:37:38.599Z,5.80
2018-12-01T19:40:12.142Z,5.23
2018-12-01T19:42:40.586Z,7.00
2018-12-01T19:45:09.407Z,5.00
2018-12-01T19:47:37.879Z,4.07
2018-12-01T19:50:11.845Z,4.90
2018-12-01T19:52:40.310Z,6.70
2018-12-01T19:55:10.606Z,4.77
2018-12-01T19:57:39.439Z,4.80
2018-12-01T20:00:13.950Z,4.37
2018-12-01T20:02:42.468Z,5.23
2018-12-01T20:05:13.142Z,5.50
2018-12-01T20:07:41.962Z,7.43
2018-12-01T20:10:15.629Z,10.90
2018-12-01T20:12:45.903Z,6.30
2018-12-01T20:15:35.638Z,7.17
2018-12-01T20:18:10.690Z,7.07
2018-12-01T20:20:39.110Z,9.50
2018-12-01T20:23:07.558Z,8.50
2018-12-01T20:25:36.007Z,11.37
2018-12-01T20:28:04.499Z,12.23
2018-12-01T20:30:32.922Z,7.87
2018-12-01T20:33:01.379Z,7.80
2018-12-01T20:35:39.458Z,7.17
2018-12-01T20:38:15.558Z,6.00
2018-12-01T20:40:43.970Z,10.93
2018-12-01T20:43:12.414Z,6.53
2018-12-01T20:45:40.850Z,5.57
2018-12-01T20:48:09.257Z,6.20
2018-12-01T20:50:37.685Z,6.80
2018-12-01T20:53:07.040Z,19.50
2018-12-01T20:55:35.468Z,6.53
2018-12-01T20:58:05.950Z,9.10
2018-12-01T21:00:34.370Z,17.00
2018-12-01T21:03:02.761Z,11.30
2018-12-01T21:05:31.174Z,15.00
2018-12-01T21:08:02.196Z,26.53
2018-12-01T21:10:31.046Z,14.33
2018-12-01T21:13:00.741Z,11.77
2018-12-01T21:15:29.246Z,9.47
2018-12-01T21:17:57.658Z,8.93
2018-12-01T21:20:26.106Z,6.87
2018-12-01T21:22:54.552Z,7.77
2018-12-01T21:25:25.435Z,8.33
2018-12-01T21:27:55.102Z,12.10
2018-12-01T21:30:24.637Z,8.60
2018-12-01T21:32:56.174Z,6.63
2018-12-01T21:35:24.654Z,8.40
2018-12-01T21:37:53.077Z,8.37
2018-12-01T21:40:21.526Z,12.90
2018-12-01T21:42:49.958Z,13.80
2018-12-01T21:45:18.973Z,11.10
2018-12-01T21:47:47.454Z,13.50
2018-12-01T21:50:17.918Z,11.33
2018-12-01T21:52:48.726Z,8.07
2018-12-01T21:55:17.217Z,79.33
2018-12-01T21:57:46.610Z,20.37
2018-12-01T22:00:18.298Z,24.40
2018-12-01T22:02:48.595Z,24.10
2018-12-01T22:05:18.564Z,23.20
2018-12-01T22:07:46.986Z,15.90
2018-12-01T22:10:16.206Z,20.60
2018-12-01T22:12:44.619Z,19.00
2018-12-01T22:15:16.238Z,21.73
2018-12-01T22:17:44.664Z,18.50
2018-12-01T22:20:14.664Z,14.67
2018-12-01T22:22:43.085Z,17.70
2018-12-01T22:25:11.806Z,18.10
2018-12-01T22:27:40.302Z,19.10
2018-12-01T22:30:18.178Z,15.17
2018-12-01T22:32:49.118Z,17.20
2018-12-01T22:35:20.676Z,16.13
2018-12-01T22:37:49.483Z,24.57
2018-12-01T22:40:19.266Z,16.67
2018-12-01T22:42:48.248Z,14.57
2018-12-01T22:45:16.653Z,10.33
2018-12-01T22:47:45.102Z,14.23
2018-12-01T22:50:15.774Z,11.17
2018-12-01T22:52:44.306Z,13.07
2018-12-01T22:55:13.856Z,13.20
2018-12-01T22:57:43.727Z,13.33
2018-12-01T23:00:19.694Z,17.33
2018-12-01T23:02:48.198Z,13.30
2018-12-01T23:05:17.113Z,18.93
2018-12-01T23:07:45.202Z,15.87
2018-12-01T23:10:15.445Z,12.87
2018-12-01T23:12:44.862Z,14.43
2018-12-01T23:15:14.560Z,10.07
2018-12-01T23:17:45.286Z,11.13
2018-12-01T23:20:20.110Z,10.27
2018-12-01T23:22:49.167Z,12.80
2018-12-01T23:25:17.623Z,12.27
2018-12-01T23:27:46.073Z,9.90
2018-12-01T23:30:18.871Z,9.90
2018-12-01T23:32:49.083Z,15.73
2018-12-01T23:35:17.515Z,13.60
2018-12-01T23:37:46.003Z,6.33
2018-12-01T23:40:14.547Z,11.30
2018-12-01T23:42:43.034Z,8.60
2018-12-01T23:45:14.736Z,9.43
2018-12-01T23:47:43.612Z,9.00
2018-12-01T23:50:15.401Z,18.53
2018-12-01T23:52:44.413Z,11.80
2018-12-01T23:55:13.838Z,11.53
2018-12-01T23:57:42.369Z,10.40
